• Join FlightAware (Why Join?)
  • Login
  • US Flag 
06:54PM EDT


 

Airport Tracker/Info


-or-


 

Live Flight TrackerFlight Track Log ✈ JBU661 ✈ 30-Jul-2013 ✈ KJFK - TBPB / BGI

Flight Track Log - Related Links

Times and Time Zones

All times are in EDT time to prevent confusion due to time zone crossing. See the JBU661 flight status page for this flight to view local times or setup timezone preferences in your user account.

Time Position Orientation Groundspeed Altitude Reporting Facility
EDT Latitude Longitude Course Direction KTS MPH feet Rate Location/Type
08:35AM 40.6300 -73.7790 37° Northeast 120 138  Level FlightAware
08:36AM 40.6460 -73.7670 30° Northeast 177 204 200 1,500 Climbing FlightAware
08:36AM 40.6600 -73.7540 35° Northeast 181 208 1,100 2,340 Climbing FlightAware
08:36AM 40.6640 -73.7450 60° Northeast 195 224 1,300 1,500 Climbing FlightAware
08:36AM 40.6650 -73.7400 75° East 204 235 1,400 1,500 Climbing FlightAware
08:36AM 40.6660 -73.7320 81° East 210 242 1,600 1,200 Climbing FlightAware
08:37AM 40.6660 -73.7010 90° East 238 274 2,000 1,380 Climbing FlightAware
08:37AM 40.6490 -73.6530 115° Southeast 278 320 2,900 1,800 Climbing FlightAware
08:37AM 40.6410 -73.6470 150° Southeast 280 322 3,300 3,600 Climbing FlightAware
08:38AM 40.6170 -73.6310 153° Southeast 275 316 4,600 3,360 Climbing FlightAware
08:38AM 40.5890 -73.6150 157° South 277 319 5,800 2,700 Climbing FlightAware
08:38AM 40.5670 -73.6010 154° Southeast 285 328 6,600 2,580 Climbing FlightAware
08:39AM 40.5453 -73.5847 150° Southeast 297 342 7,400 2,820 Climbing FlightAware ADS-B
08:39AM 40.5408 -73.5792 137° Southeast 299 344 7,600 2,640 Climbing FlightAware ADS-B
08:39AM 40.5363 -73.5729 133° Southeast 299 344 7,800 2,460 Climbing FlightAware ADS-B
08:39AM 40.5301 -73.5633 130° Southeast 301 346 8,100 2,400 Climbing FlightAware ADS-B
08:39AM 40.5138 -73.5370 129° Southeast 310 357 8,800 2,280 Climbing FlightAware ADS-B
08:40AM 40.4987 -73.5140 131° Southeast 314 361 9,400 2,160 Climbing FlightAware ADS-B
08:40AM 40.4693 -73.4694 131° Southeast 326 375 10,500 1,500 Climbing FlightAware ADS-B
08:41AM 40.4351 -73.4163 130° Southeast 358 412 11,000 960 Climbing FlightAware ADS-B
08:41AM 40.3963 -73.3546 130° Southeast 389 448 11,600 780 Climbing FlightAware ADS-B
08:42AM 40.3590 -73.2969 130° Southeast 388 447 11,900 1,200 Climbing FlightAware ADS-B
08:42AM 40.3156 -73.2455 138° Southeast 392 451 12,900 1,800 Climbing FlightAware ADS-B
08:43AM 40.2628 -73.1824 138° Southeast 405 466 14,000 1,860 Climbing FlightAware ADS-B
08:44AM 40.2141 -73.1238 137° Southeast 406 467 15,200 1,800 Climbing FlightAware ADS-B
08:44AM 40.1580 -73.0566 138° Southeast 415 478 16,300 1,620 Climbing FlightAware ADS-B
08:45AM 40.1120 -73.0020 138° Southeast 424 488 17,200 1,500 Climbing FlightAware
08:45AM 40.0630 -72.9440 138° Southeast 432 497 18,000 1,620 Climbing FlightAware
08:46AM 40.0363 -72.9115 137° Southeast 432 497 18,600 1,560 Climbing FlightAware ADS-B
08:46AM 39.9617 -72.8229 138° Southeast 444 511 19,800 1,560 Climbing FlightAware ADS-B
08:47AM 39.9126 -72.7646 138° Southeast 445 512 20,800 1,380 Climbing FlightAware ADS-B
08:48AM 39.8540 -72.6960 138° Southeast 455 524 21,500 660 Climbing FlightAware
08:48AM 39.7970 -72.6270 137° Southeast 459 528 21,700 120 Climbing FlightAware
08:49AM 39.7490 -72.5690 137° Southeast 459 528 21,700 1,380 Level FlightAware
08:50AM 39.6690 -72.4770 138° Southeast 459 528 23,700 2,580 Climbing FlightAware
08:50AM 39.6100 -72.4080 138° Southeast 459 528 25,100 2,340 Climbing FlightAware
08:51AM 39.5770 -72.3699 138° Southeast 465 535 25,600 1,260 Climbing FlightAware ADS-B
08:51AM 39.5261 -72.3106 138° Southeast 468 539 26,200 960 Climbing FlightAware ADS-B
08:52AM 39.4692 -72.2444 138° Southeast 475 547 26,700 540 Climbing FlightAware ADS-B
08:53AM 39.3800 -72.1390 138° Southeast 459 528 27,100 180 Climbing FlightAware
08:53AM 39.3190 -72.0660 137° Southeast 459 528 27,100 1,020 Level FlightAware
08:56AM 39.0141 -71.7202 138° Southeast 30,700 1,320 Climbing FlightAware ADS-B
08:56AM 39.0080 -71.7132 138° Southeast 494 568 30,800 960 Climbing FlightAware ADS-B
08:57AM 38.9287 -71.6227 138° Southeast 494 568 31,500 960 Climbing FlightAware ADS-B
08:58AM 38.8713 -71.5574 138° Southeast 492 566 32,100 1,200 Climbing FlightAware ADS-B
08:58AM 38.8100 -71.4880 139° Southeast 490 564 32,900 1,200 Climbing FlightAware ADS-B
08:59AM 38.7478 -71.4175 139° Southeast 480 552 33,600 780 Climbing FlightAware ADS-B
08:59AM 38.6850 -71.3528 139° Southeast 479 551 34,000 780 Climbing New York Center
09:00AM 38.5894 -71.2403 137° Southeast 474 545 35,000 480 Climbing New York Center
09:01AM 38.4939 -71.1364 140° Southeast 464 534 35,000  Level New York Center
09:02AM 38.3983 -71.0297 139° Southeast 459 528 35,000 -60 Level New York Center
09:03AM 38.3006 -70.9233 139° Southeast 454 522 34,900 -60 Descending New York Center
09:04AM 38.2047 -70.8200 140° Southeast 454 522 34,900  Level New York Center
09:05AM 38.1089 -70.7144 139° Southeast 454 522 35,000  Climbing New York Center
09:06AM 38.0131 -70.6064 138° Southeast 454 522 35,000  Level New York Center
09:07AM 37.9044 -70.5458 156° South 448 516 35,000 -60 Level New York Center
09:08AM 37.7875 -70.5122 167° South 433 498 34,900  Descending New York Center
09:09AM 37.6789 -70.4389 152° Southeast 433 498 35,000  Climbing New York Center
09:10AM 37.5744 -70.3711 153° Southeast 433 498 35,000 -60 Level New York Center
09:11AM 37.4636 -70.3064 155° Southeast 428 493 34,900  Descending New York Center
09:12AM 37.3569 -70.2442 155° Southeast 428 493 35,000  Climbing New York Center
09:14AM 37.2437 -70.1603 149° Southeast  Level FlightAware Approximate
09:21AM 36.5057 -69.6639 154° Southeast  Level FlightAware Approximate
09:22AM 36.3982 -69.5991 154° Southeast  Level FlightAware Approximate
09:23AM 36.2907 -69.5344 154° Southeast  Level FlightAware Approximate
09:24AM 36.1831 -69.4698 154° Southeast  Level FlightAware Approximate
09:25AM 36.0857 -69.3856 141° Southeast  Level FlightAware Approximate
09:26AM 35.9928 -69.2928 141° Southeast  Level FlightAware Approximate
09:26AM 36.1667 -69.4500 143° Southeast 435 501 35,000  Level New York Oceanic (ODAPS)
09:27AM 35.8966 -69.2052 144° Southeast  Level FlightAware Approximate
09:28AM 35.8004 -69.1178 142° Southeast  Level FlightAware Approximate
09:29AM 35.7059 -69.0278 142° Southeast  Level FlightAware Approximate
09:30AM 35.6114 -68.9379 142° Southeast  Level FlightAware Approximate
09:31AM 35.5167 -68.8483 142° Southeast  Level FlightAware Approximate
09:32AM 35.3955 -68.7278 143° Southeast 435 501 35,000  Level FlightAware Transoceanic
09:33AM 35.2988 -68.6385 143° Southeast 435 501 35,000  Level FlightAware Transoceanic
09:34AM 35.2020 -68.5495 143° Southeast 435 501 35,000  Level FlightAware Transoceanic
09:35AM 35.1051 -68.4606 143° Southeast 435 501 35,000  Level FlightAware Transoceanic
09:36AM 35.0083 -68.3719 143° Southeast 435 501 35,000  Level FlightAware Transoceanic
09:37AM 34.9113 -68.2835 143° Southeast 435 501 35,000  Level FlightAware Transoceanic
09:38AM 34.8143 -68.1953 143° Southeast 435 501 35,000  Level FlightAware Transoceanic
09:39AM 34.7172 -68.1072 143° Southeast 435 501 35,000  Level FlightAware Transoceanic
09:40AM 34.6200 -68.0194 143° Southeast 435 501 35,000  Level FlightAware Transoceanic
09:41AM 34.5228 -67.9318 143° Southeast 435 501 35,000  Level FlightAware Transoceanic
09:42AM 34.4255 -67.8444 143° Southeast 435 501 35,000  Level FlightAware Transoceanic
09:43AM 34.3282 -67.7571 144° Southeast 435 501 35,000  Level FlightAware Transoceanic
09:44AM 34.2308 -67.6701 144° Southeast 435 501 35,000  Level FlightAware Transoceanic
09:45AM 34.1333 -67.5833 170° South 435 501 35,000  Level FlightAware Transoceanic
09:46AM 34.0094 -67.5567 170° South 435 501 35,000  Level FlightAware Transoceanic
09:47AM 33.8855 -67.5301 170° South 435 501 35,000  Level FlightAware Transoceanic
09:47AM 34.1333 -67.5833 170° South 440 506 35,000  Level New York Oceanic (ODAPS)
09:48AM 33.7615 -67.5035 170° South 435 501 35,000  Level FlightAware Transoceanic
09:49AM 33.6376 -67.4771 170° South 435 501 35,000  Level FlightAware Transoceanic
09:50AM 33.5136 -67.4507 170° South 435 501 35,000  Level FlightAware Transoceanic
09:51AM 33.3897 -67.4244 170° South 435 501 35,000  Level FlightAware Transoceanic
09:52AM 33.2657 -67.3982 170° South 435 501 35,000  Level FlightAware Transoceanic
09:53AM 33.0496 -67.3527 170° South 440 506 35,000  Level FlightAware Transoceanic
09:54AM 32.9292 -67.3274 170° South 440 506 35,000  Level FlightAware Transoceanic
09:55AM 32.8087 -67.3022 170° South 440 506 35,000  Level FlightAware Transoceanic
09:56AM 32.6883 -67.2771 170° South 440 506 35,000  Level FlightAware Transoceanic
09:57AM 32.5678 -67.2520 170° South 440 506 35,000  Level FlightAware Transoceanic
09:58AM 32.4474 -67.2270 170° South 440 506 35,000  Level FlightAware Transoceanic
09:59AM 32.3269 -67.2021 170° South 440 506 35,000  Level FlightAware Transoceanic
10:00AM 32.2065 -67.1772 170° South 440 506 35,000  Level FlightAware Transoceanic
10:01AM 32.0860 -67.1524 170° South 440 506 35,000  Level FlightAware Transoceanic
10:02AM 31.9655 -67.1277 170° South 440 506 35,000  Level FlightAware Transoceanic
10:03AM 31.8450 -67.1030 170° South 440 506 35,000  Level FlightAware Transoceanic
10:04AM 31.7245 -67.0784 170° South 440 506 35,000  Level FlightAware Transoceanic
10:05AM 31.6040 -67.0538 170° South 440 506 35,000  Level FlightAware Transoceanic
10:06AM 31.4835 -67.0294 170° South 440 506 35,000  Level FlightAware Transoceanic
10:07AM 31.3630 -67.0049 170° South 440 506 35,000  Level FlightAware Transoceanic
10:08AM 31.2425 -66.9806 170° South 440 506 35,000  Level FlightAware Transoceanic
10:09AM 31.1220 -66.9563 170° South 440 506 35,000  Level FlightAware Transoceanic
10:10AM 31.0015 -66.9321 170° South 440 506 35,000  Level FlightAware Transoceanic
10:11AM 30.8810 -66.9079 170° South 440 506 35,000  Level FlightAware Transoceanic
10:12AM 30.7605 -66.8838 170° South 440 506 35,000  Level FlightAware Transoceanic
10:13AM 30.6399 -66.8597 170° South 440 506 35,000  Level FlightAware Transoceanic
10:14AM 30.5194 -66.8357 170° South 440 506 35,000  Level FlightAware Transoceanic
10:15AM 30.3989 -66.8118 170° South 440 506 35,000  Level FlightAware Transoceanic
10:16AM 30.2783 -66.7879 170° South 440 506 35,000  Level FlightAware Transoceanic
10:17AM 30.1578 -66.7641 170° South 440 506 35,000  Level FlightAware Transoceanic
10:18AM 30.0372 -66.7404 170° South 440 506 35,000  Level FlightAware Transoceanic
10:19AM 29.9167 -66.7167 170° South 440 506 35,000  Level FlightAware Transoceanic
10:20AM 29.7934 -66.6926 170° South 440 506 35,000  Level FlightAware Transoceanic
10:20AM 29.9167 -66.7167 170° South 439 505 35,000  Level New York Oceanic (ODAPS)
10:21AM 29.6701 -66.6685 170° South 440 506 35,000  Level FlightAware Transoceanic
10:22AM 29.5468 -66.6445 170° South 440 506 35,000  Level FlightAware Transoceanic
10:23AM 29.4234 -66.6206 170° South 440 506 35,000  Level FlightAware Transoceanic
10:24AM 29.3001 -66.5968 170° South 440 506 35,000  Level FlightAware Transoceanic
10:25AM 29.1768 -66.5730 170° South 440 506 35,000  Level FlightAware Transoceanic
10:26AM 28.9488 -66.5291 170° South 439 505 35,000  Level FlightAware Transoceanic
10:27AM 28.8278 -66.5059 170° South 439 505 35,000  Level FlightAware Transoceanic
10:28AM 28.7068 -66.4827 170° South 439 505 35,000  Level FlightAware Transoceanic
10:29AM 28.5857 -66.4597 170° South 439 505 35,000  Level FlightAware Transoceanic
10:30AM 28.4647 -66.4366 171° South 439 505 35,000  Level FlightAware Transoceanic
10:31AM 28.3437 -66.4136 171° South 439 505 35,000  Level FlightAware Transoceanic
10:32AM 28.2227 -66.3907 171° South 439 505 35,000  Level FlightAware Transoceanic
10:33AM 28.1017 -66.3678 171° South 439 505 35,000  Level FlightAware Transoceanic
10:34AM 27.9806 -66.3450 171° South 439 505 35,000  Level FlightAware Transoceanic
10:35AM 27.8596 -66.3222 171° South 439 505 35,000  Level FlightAware Transoceanic
10:36AM 27.7385 -66.2995 171° South 439 505 35,000  Level FlightAware Transoceanic
10:37AM 27.6175 -66.2768 171° South 439 505 35,000  Level FlightAware Transoceanic
10:38AM 27.4965 -66.2542 171° South 439 505 35,000  Level FlightAware Transoceanic
10:39AM 27.3754 -66.2316 171° South 439 505 35,000  Level FlightAware Transoceanic
10:40AM 27.2544 -66.2091 171° South 439 505 35,000  Level FlightAware Transoceanic
10:41AM 27.1333 -66.1866 171° South 439 505 35,000  Level FlightAware Transoceanic
10:42AM 27.0122 -66.1642 171° South 439 505 35,000  Level FlightAware Transoceanic
10:43AM 26.8912 -66.1418 171° South 439 505 35,000  Level FlightAware Transoceanic
10:44AM 26.7701 -66.1195 171° South 439 505 35,000  Level FlightAware Transoceanic
10:45AM 26.6490 -66.0972 171° South 439 505 35,000  Level FlightAware Transoceanic
10:46AM 26.5280 -66.0749 171° South 439 505 35,000  Level FlightAware Transoceanic
10:47AM 26.4069 -66.0527 171° South 439 505 35,000  Level FlightAware Transoceanic
10:48AM 26.2858 -66.0306 171° South 439 505 35,000  Level FlightAware Transoceanic
10:49AM 26.1647 -66.0085 171° South 439 505 35,000  Level FlightAware Transoceanic
10:50AM 26.0436 -65.9865 171° South 439 505 35,000  Level FlightAware Transoceanic
10:51AM 25.9225 -65.9644 171° South 439 505 35,000  Level FlightAware Transoceanic
10:52AM 25.8014 -65.9425 171° South 439 505 35,000  Level FlightAware Transoceanic
10:53AM 25.6803 -65.9206 171° South 439 505 35,000  Level FlightAware Transoceanic
10:54AM 25.5592 -65.8987 171° South 439 505 35,000  Level FlightAware Transoceanic
10:55AM 25.4381 -65.8768 171° South 439 505 35,000  Level FlightAware Transoceanic
10:56AM 25.3170 -65.8551 171° South 439 505 35,000  Level FlightAware Transoceanic
10:57AM 25.1959 -65.8333 171° South 439 505 35,000  Level FlightAware Transoceanic
10:58AM 25.0748 -65.8116 171° South 439 505 35,000  Level FlightAware Transoceanic
10:59AM 24.9537 -65.7900 171° South 439 505 35,000  Level FlightAware Transoceanic
11:00AM 24.8325 -65.7684 171° South 439 505 35,000  Level FlightAware Transoceanic
11:01AM 24.7114 -65.7468 171° South 439 505 35,000  Level FlightAware Transoceanic
11:02AM 24.5903 -65.7253 171° South 439 505 35,000  Level FlightAware Transoceanic
11:03AM 24.4692 -65.7038 171° South 439 505 35,000  Level FlightAware Transoceanic
11:04AM 24.3480 -65.6823 171° South 439 505 35,000  Level FlightAware Transoceanic
11:05AM 24.2269 -65.6609 171° South 439 505 35,000  Level FlightAware Transoceanic
11:06AM 24.1057 -65.6396 171° South 439 505 35,000  Level FlightAware Transoceanic
11:07AM 23.9846 -65.6182 171° South 439 505 35,000  Level FlightAware Transoceanic
11:08AM 23.8634 -65.5969 171° South 439 505 35,000  Level FlightAware Transoceanic
11:09AM 23.7423 -65.5757 171° South 439 505 35,000  Level FlightAware Transoceanic
11:10AM 23.6211 -65.5545 171° South 439 505 35,000  Level FlightAware Transoceanic
11:11AM 23.5000 -65.5333 165° South 439 505 35,000  Level FlightAware Transoceanic
11:12AM 23.3746 -65.4977 165° South 439 505 35,000  Level FlightAware Transoceanic
11:13AM 23.2493 -65.4621 165° South 439 505 35,000  Level FlightAware Transoceanic
11:14AM 23.1239 -65.4265 165° South 439 505 35,000 1,980 Level FlightAware Transoceanic
11:14AM 23.5000 -65.5333 165° South 400 460 37,000  Climbing New York Oceanic (ODAPS)
11:15AM 22.9985 -65.3911 165° South 439 505 35,000 -1,020 Descending FlightAware Transoceanic
11:16AM 22.8731 -65.3557 165° South 439 505 35,000  Level FlightAware Transoceanic
11:17AM 22.7477 -65.3203 165° South 439 505 35,000  Level FlightAware Transoceanic
11:18AM 22.6222 -65.2850 165° South 439 505 35,000  Level FlightAware Transoceanic
11:19AM 22.4968 -65.2498 165° South 439 505 35,000 1,200 Level FlightAware Transoceanic
11:19AM 22.4333 -65.2667 166° South 490 564 37,000 1,980 Climbing San Juan Center
11:20AM 22.3654 -65.2130 165° South 400 460 37,000  Level FlightAware Transoceanic
11:20AM 22.3167 -65.2333 165° South 460 529 37,000  Level San Juan Center
11:21AM 22.2519 -65.1813 166° South 400 460 37,000  Level FlightAware Transoceanic
11:21AM 22.2000 -65.2000 165° South 450 518 37,000  Level San Juan Center
11:22AM 22.1384 -65.1496 166° South 400 460 37,000  Level FlightAware Transoceanic
11:22AM 22.0833 -65.1667 165° South 420 483 37,000  Level San Juan Center
11:23AM 22.0249 -65.1180 166° South 400 460 37,000  Level FlightAware Transoceanic
11:23AM 21.9833 -65.1333 163° South 450 518 37,000  Level San Juan Center
11:24AM 21.9114 -65.0864 166° South 400 460 37,000  Level FlightAware Transoceanic
11:24AM 21.8333 -65.1000 168° South 460 529 37,000  Level San Juan Center
11:25AM 21.7979 -65.0548 166° South 400 460 37,000  Level FlightAware Transoceanic
11:30AM 21.1880 -64.7050 168° South 447 514 37,000  Level FlightAware
11:31AM 21.1330 -64.6700 149° Southeast 447 514 37,000  Level FlightAware
11:31AM 21.0790 -64.6350 149° Southeast 447 514 37,000  Level FlightAware
11:32AM 21.0200 -64.5970 149° Southeast 447 514 37,000  Level FlightAware
11:33AM 20.9660 -64.5620 149° Southeast 447 514 37,000  Level FlightAware
11:33AM 20.9120 -64.5270 149° Southeast 447 514 37,000  Level FlightAware
11:34AM 20.8580 -64.4930 150° Southeast 447 514 37,000  Level FlightAware
11:34AM 20.8040 -64.4580 149° Southeast 447 514 37,000  Level FlightAware
11:35AM 20.6730 -64.3850 152° Southeast 450 518 37,000  Level FlightAware
11:36AM 20.6060 -64.3420 149° Southeast 451 519 37,000  Level FlightAware
11:36AM 20.5300 -64.2960 150° Southeast 452 520 37,000  Level FlightAware
11:37AM 20.4710 -64.2600 150° Southeast 453 521 37,000  Level FlightAware
11:37AM 20.4040 -64.2190 150° Southeast 454 522 37,000  Level FlightAware
11:38AM 20.3390 -64.1770 149° Southeast 454 522 37,000  Level FlightAware
11:39AM 20.2820 -64.1410 149° Southeast 454 522 37,000  Level FlightAware
11:39AM 20.2270 -64.1060 149° Southeast 454 522 37,000  Level FlightAware
11:40AM 20.1720 -64.0710 149° Southeast 454 522 37,000  Level FlightAware
11:41AM 20.0520 -64.0020 152° Southeast 452 520 37,000  Level FlightAware
11:41AM 19.9950 -63.9660 149° Southeast 452 520 37,000  Level FlightAware
11:42AM 19.9440 -63.9330 149° Southeast 452 520 37,000  Level FlightAware
11:42AM 19.8560 -63.8820 151° Southeast 452 520 37,000  Level FlightAware
11:43AM 19.7820 -63.8370 150° Southeast 452 520 37,000  Level FlightAware
11:44AM 19.7140 -63.7950 150° Southeast 451 519 37,000  Level FlightAware
11:44AM 19.6510 -63.7580 151° Southeast 451 519 37,000  Level FlightAware
11:45AM 19.5870 -63.7180 150° Southeast 451 519 37,000  Level FlightAware
11:46AM 19.5210 -63.6770 150° Southeast 451 519 37,000  Level FlightAware
11:46AM 19.4650 -63.6410 149° Southeast 451 519 37,000  Level FlightAware
11:47AM 19.4090 -63.6050 149° Southeast 451 519 37,000  Level FlightAware
11:47AM 19.3500 -63.5680 149° Southeast 451 519 37,000  Level FlightAware
11:48AM 19.2930 -63.5320 149° Southeast 451 519 37,000  Level FlightAware
11:49AM 19.2390 -63.4970 149° Southeast 451 519 37,000  Level FlightAware
11:49AM 19.1840 -63.4620 149° Southeast 451 519 37,000  Level FlightAware
11:50AM 19.1290 -63.4270 149° Southeast 451 519 37,000  Level FlightAware
11:50AM 19.0740 -63.3930 150° Southeast 451 519 37,000  Level FlightAware
11:51AM 19.0200 -63.3580 149° Southeast 451 519 37,000  Level FlightAware
11:52AM 18.9470 -63.3110 149° Southeast 451 519 37,000  Level FlightAware
11:52AM 18.8920 -63.2770 150° Southeast 451 519 37,000  Level FlightAware
11:53AM 18.8370 -63.2420 149° Southeast 451 519 37,000  Level FlightAware
11:54AM 18.7860 -63.2090 149° Southeast 451 519 37,000  Level FlightAware
11:54AM 18.7290 -63.1730 149° Southeast 451 519 37,000  Level FlightAware
11:55AM 18.6750 -63.1390 149° Southeast 451 519 37,000  Level FlightAware
11:55AM 18.4500 -63.0333 149° Southeast 440 506 37,000  Level San Juan Center
11:56AM 18.3500 -62.9667 148° Southeast 440 506 37,000  Level San Juan Center
11:57AM 18.2333 -62.9000 152° Southeast 450 518 37,000  Level San Juan Center
11:58AM 18.1167 -62.8333 151° Southeast 450 518 37,000  Level San Juan Center
11:59AM 18.0167 -62.7667 148° Southeast 450 518 37,000  Level San Juan Center
12:00PM 17.9000 -62.7000 151° Southeast 440 506 37,000  Level San Juan Center
12:02PM 17.7000 -62.5833 151° Southeast 450 518 37,000  Level San Juan Center
12:03PM 17.6000 -62.5000 142° Southeast 460 529 37,000  Level San Juan Center
12:09PM 17.2100 -61.9210 142° Southeast 449 517 37,000  Level FlightAware
12:10PM 17.1490 -61.8360 127° Southeast 450 518 37,000  Level FlightAware
12:10PM 17.1100 -61.7810 127° Southeast 450 518 37,000  Level FlightAware
12:11PM 17.0710 -61.7730 169° South 450 518 37,000  Level FlightAware
12:11PM 17.0150 -61.7310 144° Southeast 450 518 37,000  Level FlightAware
12:12PM 16.9470 -61.6960 154° Southeast 448 516 37,000  Level FlightAware
12:12PM 16.8830 -61.6590 151° Southeast 447 514 37,000  Level FlightAware
12:13PM 16.8160 -61.6200 151° Southeast 445 512 37,000  Level FlightAware
12:14PM 16.7390 -61.5750 151° Southeast 446 513 37,000  Level FlightAware
12:14PM 16.6640 -61.5310 151° Southeast 448 516 37,000  Level FlightAware
12:15PM 16.6030 -61.4950 151° Southeast 448 516 37,000  Level FlightAware
12:16PM 16.5390 -61.4590 152° Southeast 448 516 37,000  Level FlightAware
12:16PM 16.4770 -61.4220 150° Southeast 448 516 37,000  Level FlightAware
12:17PM 16.4090 -61.3830 151° Southeast 448 516 37,000  Level FlightAware
12:17PM 16.3370 -61.3410 151° Southeast 448 516 37,000  Level FlightAware
12:18PM 16.3040 -61.3220 151° Southeast 448 516 37,000  Level FlightAware
12:18PM 16.2360 -61.2830 151° Southeast 447 514 37,000  Level FlightAware
12:19PM 16.1550 -61.2350 150° Southeast 447 514 37,000  Level FlightAware
12:20PM 16.0770 -61.1910 152° Southeast 448 516 37,000  Level FlightAware
12:20PM 15.9940 -61.1420 150° Southeast 446 513 37,000  Level FlightAware
12:21PM 15.9260 -61.1030 151° Southeast 446 513 37,000  Level FlightAware
12:22PM 15.8520 -61.0610 151° Southeast 446 513 37,000  Level FlightAware
12:22PM 15.7970 -61.0290 151° Southeast 446 513 37,000  Level FlightAware
12:23PM 15.7120 -60.9800 151° Southeast 446 513 37,000  Level FlightAware
12:24PM 15.6450 -60.9420 151° Southeast 447 514 37,000  Level FlightAware
12:24PM 15.5580 -60.8920 151° Southeast 447 514 37,000  Level FlightAware
12:25PM 15.4950 -60.8550 150° Southeast 449 517 37,000  Level FlightAware
12:26PM 15.4470 -60.8270 151° Southeast 448 516 37,000  Level FlightAware
12:26PM 15.3800 -60.7920 153° Southeast 448 516 37,000 -1,020 Level FlightAware
12:27PM 15.3100 -60.7740 166° South 449 517 35,800 -2,580 Descending FlightAware
12:27PM 15.2390 -60.7560 166° South 457 526 34,100 -3,120 Descending FlightAware
12:28PM 15.1470 -60.7300 165° South 464 534 32,000 -3,120 Descending FlightAware
12:29PM 15.0910 -60.7150 165° South 470 541 30,500 -3,540 Descending FlightAware
12:29PM 14.9970 -60.6890 165° South 484 557 27,700 -3,840 Descending FlightAware
12:30PM 14.9120 -60.6670 166° South 488 562 25,600 -2,280 Descending FlightAware
12:30PM 14.8350 -60.6470 166° South 487 560 25,000 -540 Descending FlightAware
12:31PM 14.7610 -60.6280 166° South 487 560 25,000  Level FlightAware
12:32PM 14.7030 -60.6130 166° South 485 558 25,000  Level FlightAware
12:32PM 14.5830 -60.5830 166° South 484 557 25,000  Level FlightAware
12:33PM 14.5030 -60.5620 166° South 483 556 25,000  Level FlightAware
12:34PM 14.4250 -60.5430 167° South 484 557 25,000  Level FlightAware
12:34PM 14.3500 -60.5220 165° South 484 557 25,000  Level FlightAware
12:35PM 14.2780 -60.4950 160° South 481 554 25,000  Level FlightAware
12:35PM 14.2050 -60.4660 159° South 482 555 25,000  Level FlightAware
12:36PM 14.1290 -60.4360 159° South 482 555 25,000 -120 Level FlightAware
12:36PM 14.0590 -60.4090 159° South 483 556 24,900 -1,260 Descending FlightAware
12:37PM 13.9760 -60.3760 159° South 474 545 23,500 -2,400 Descending FlightAware
12:38PM 13.9150 -60.3530 160° South 464 534 22,200 -2,520 Descending FlightAware
12:38PM 13.8330 -60.3210 159° South 452 520 20,500 -2,700 Descending FlightAware
12:39PM 13.7830 -60.3020 160° South 432 497 19,000 -3,960 Descending FlightAware
12:39PM 13.7100 -60.2730 159° South 422 486 16,100 -3,000 Descending FlightAware
12:40PM 13.6270 -60.2310 154° Southeast 414 476 14,300 -1,140 Descending FlightAware
12:41PM 13.5740 -60.2020 152° Southeast 414 476 14,300  Level FlightAware
12:42PM 13.5250 -60.1750 152° Southeast 414 476 14,300 -1,620 Level FlightAware
12:44PM 13.3943 -59.9764 124° Southeast  Level Estimated
12:45PM 13.3261 -59.8729 124° Southeast  Level Estimated
12:46PM 13.2578 -59.7695 124° Southeast  Level Estimated
12:47PM 13.1895 -59.6661 124° Southeast  Level Estimated
12:48PM 13.1211 -59.5627 124° Southeast  Level Estimated
12:48PM 13.0340 -59.8810 150° Southeast 269 310 3,000  Level FlightAware
12:49PM 13.0150 -59.8670 144° Southeast 266 306 3,000  Level FlightAware
12:49PM 13.0000 -59.8500 132° Southeast 263 303 3,000  Level FlightAware
12:49PM 12.9940 -59.8360 114° Southeast 259 298 3,000  Level FlightAware
12:50PM 12.9980 -59.8030 83° East 255 293 3,000  Level FlightAware
12:50PM 13.0050 -59.7740 76° East 259 298 3,000  Level FlightAware
12:50PM 13.0110 -59.7500 76° East 256 295 3,000  Level FlightAware
12:51PM 13.0160 -59.7310 75° East 251 289 3,000  Level FlightAware
12:51PM 13.0230 -59.7040 75° East 231 266 3,000  Level FlightAware
12:51PM 13.0290 -59.6790 76° East 224 258 3,000  Level FlightAware
12:52PM 13.0320 -59.6660 77° East 227 261 3,000 -420 Level FlightAware
12:52PM 13.0360 -59.6500 76° East 219 252 2,800 -900 Descending FlightAware
12:52PM 13.0420 -59.6220 78° East 183 211 2,300 -1,020 Descending FlightAware
12:53PM 13.0460 -59.6100 71° East 180 207 2,100 -1,020 Descending FlightAware
12:53PM 13.0500 -59.5930 76° East 159 183 1,700 -840 Descending FlightAware
12:53PM 13.0540 -59.5750 77° East 139 160 1,400 -660 Descending FlightAware
12:54PM 13.0560 -59.5640 79° East 134 154 1,200 -240 Descending FlightAware
12:54PM 13.0600 -59.5500 74° East 134 154 1,200 -660 Level FlightAware
12:55PM 13.0650 -59.5330 73° East 136 157 600 -720 Descending FlightAware
12:55PM 13.0690 -59.5190 74° East 136 157 600 -420 Level FlightAware
12:56PM 13.0680 -59.5180 136° Southeast 136 157 200 -720 Descending FlightAware
12:58PM 13.0746 -59.4925 90° East  Level Estimated
12:59PM 13.0746 -59.4925 90° East  Level Estimated
01:00PM 13.0746 -59.4925 90° East  Level Estimated
01:01PM 13.0746 -59.4925 90° East  Level Estimated
01:02PM 13.0746 -59.4925 90° East  Level Estimated
01:03PM 13.0746 -59.4925 90° East  Level Estimated
01:04PM 13.0746 -59.4925 90° East  Level Estimated
01:05PM 13.0746 -59.4925 90° East  Level Estimated